createdAt,value
2019-03-30T00:01:26.202Z,18.07
2019-03-30T00:03:54.402Z,19.75
2019-03-30T00:06:22.456Z,19.17
2019-03-30T00:08:50.556Z,19.15
2019-03-30T00:11:19.644Z,18.95
2019-03-30T00:13:47.750Z,19.92
2019-03-30T00:16:15.837Z,18.65
2019-03-30T00:18:43.954Z,19.25
2019-03-30T00:21:12.043Z,19.32
2019-03-30T00:23:40.409Z,19.00
2019-03-30T00:26:08.446Z,19.12
2019-03-30T00:28:36.492Z,19.07
2019-03-30T00:31:04.611Z,19.85
2019-03-30T00:33:32.735Z,19.70
2019-03-30T00:36:00.729Z,18.95
2019-03-30T00:38:28.956Z,19.05
2019-03-30T00:40:57.018Z,19.07
2019-03-30T00:43:25.356Z,18.90
2019-03-30T00:45:53.454Z,18.52
2019-03-30T00:48:21.495Z,18.95
2019-03-30T00:50:49.518Z,19.30
2019-03-30T00:53:17.555Z,19.32
2019-03-30T00:55:45.572Z,19.57
2019-03-30T00:58:13.627Z,18.12
2019-03-30T01:00:41.749Z,19.30
2019-03-30T01:03:09.769Z,18.27
2019-03-30T01:05:37.790Z,18.27
2019-03-30T01:08:05.835Z,19.05
2019-03-30T01:10:33.873Z,18.98
2019-03-30T01:13:01.889Z,19.85
2019-03-30T01:15:30.070Z,19.52
2019-03-30T01:17:58.142Z,17.48
2019-03-30T01:20:26.159Z,18.70
2019-03-30T01:22:54.213Z,18.55
2019-03-30T01:25:22.220Z,19.65
2019-03-30T01:27:50.286Z,18.30
2019-03-30T01:30:23.472Z,18.62
2019-03-30T01:32:48.078Z,18.00
2019-03-30T01:35:16.211Z,18.87
2019-03-30T01:37:44.325Z,18.20
2019-03-30T01:40:12.665Z,16.77
2019-03-30T01:42:40.697Z,17.98
2019-03-30T01:45:08.937Z,17.02
2019-03-30T01:47:36.973Z,18.15
2019-03-30T01:50:16.505Z,17.23
2019-03-30T01:52:34.768Z,17.77
2019-03-30T01:55:02.812Z,16.42
2019-03-30T01:57:30.909Z,17.42
2019-03-30T01:59:58.973Z,16.93
2019-03-30T02:02:27.066Z,17.15
2019-03-30T02:04:55.144Z,16.82
2019-03-30T02:07:23.170Z,17.70
2019-03-30T02:09:51.196Z,17.45
2019-03-30T02:12:19.229Z,17.07
2019-03-30T02:14:47.383Z,17.40
2019-03-30T02:17:15.449Z,16.87
2019-03-30T02:19:43.479Z,17.25
2019-03-30T02:22:11.531Z,17.73
2019-03-30T02:24:39.557Z,15.32
2019-03-30T02:27:07.565Z,17.25
2019-03-30T02:29:35.784Z,15.38
2019-03-30T02:32:04.390Z,17.65
2019-03-30T02:34:32.408Z,15.80
2019-03-30T02:37:00.626Z,16.62
2019-03-30T02:39:28.717Z,17.20
2019-03-30T02:41:56.734Z,16.75
2019-03-30T02:44:24.802Z,16.20
2019-03-30T02:46:52.825Z,16.65
2019-03-30T02:49:20.861Z,15.83
2019-03-30T02:51:48.899Z,16.00
2019-03-30T02:54:16.925Z,16.55
2019-03-30T02:56:44.946Z,17.67
2019-03-30T02:59:12.998Z,16.37
2019-03-30T03:01:41.027Z,16.30
2019-03-30T03:04:09.056Z,16.70
2019-03-30T03:06:37.096Z,16.50
2019-03-30T03:09:06.885Z,16.27
2019-03-30T03:11:34.903Z,16.00
2019-03-30T03:14:02.952Z,16.27
2019-03-30T03:16:30.973Z,15.50
2019-03-30T03:18:59.006Z,16.12
2019-03-30T03:21:27.047Z,15.75
2019-03-30T03:23:55.344Z,16.02
2019-03-30T03:26:23.452Z,15.45
2019-03-30T03:28:51.827Z,16.62
2019-03-30T03:31:19.895Z,15.90
2019-03-30T03:33:47.941Z,15.48
2019-03-30T03:36:16.201Z,16.40
2019-03-30T03:38:44.220Z,14.90
2019-03-30T03:41:12.237Z,15.53
2019-03-30T03:43:40.363Z,15.08
2019-03-30T03:46:08.405Z,17.37
2019-03-30T03:48:36.452Z,18.30
2019-03-30T03:51:04.475Z,17.65
2019-03-30T03:53:32.520Z,17.60
2019-03-30T03:56:00.552Z,18.92
2019-03-30T03:58:28.606Z,17.52
2019-03-30T04:00:56.684Z,19.80
2019-03-30T04:03:24.700Z,19.67
2019-03-30T04:05:52.732Z,19.85
2019-03-30T04:08:21.102Z,20.35
2019-03-30T04:10:49.242Z,20.08
2019-03-30T04:13:17.301Z,19.23
2019-03-30T04:15:45.616Z,21.60
2019-03-30T04:18:13.909Z,20.75
2019-03-30T04:20:41.958Z,20.75
2019-03-30T04:23:09.994Z,20.92
2019-03-30T04:25:38.187Z,19.57
2019-03-30T04:28:06.468Z,20.08
2019-03-30T04:30:37.298Z,20.32
2019-03-30T04:33:05.298Z,20.10
2019-03-30T04:35:33.414Z,20.15
2019-03-30T04:38:01.828Z,21.02
2019-03-30T04:40:29.862Z,20.37
2019-03-30T04:42:57.892Z,20.43
2019-03-30T04:45:26.065Z,20.68
2019-03-30T04:47:54.134Z,20.35
2019-03-30T04:50:22.139Z,19.98
2019-03-30T04:52:50.206Z,20.82
2019-03-30T04:55:18.223Z,21.05
2019-03-30T04:57:49.881Z,19.73
2019-03-30T05:00:16.141Z,19.60
2019-03-30T05:02:44.151Z,19.67
2019-03-30T05:05:12.184Z,18.67
2019-03-30T05:07:40.367Z,19.57
2019-03-30T05:10:08.519Z,20.50
2019-03-30T05:12:36.534Z,19.87
2019-03-30T05:15:04.584Z,19.05
2019-03-30T05:17:46.248Z,18.55
2019-03-30T05:20:02.502Z,19.67
2019-03-30T05:22:30.632Z,19.17
2019-03-30T05:24:58.659Z,19.82
2019-03-30T05:27:26.687Z,21.05
2019-03-30T05:29:54.763Z,19.80
2019-03-30T05:32:22.779Z,20.15
2019-03-30T05:34:50.815Z,19.75
2019-03-30T05:37:18.851Z,19.92
2019-03-30T05:39:46.862Z,20.97
2019-03-30T05:42:15.375Z,19.85
2019-03-30T05:44:43.401Z,20.45
2019-03-30T05:47:11.515Z,19.15
2019-03-30T05:49:39.556Z,19.62
2019-03-30T05:52:07.607Z,18.82
2019-03-30T05:54:35.627Z,20.10
2019-03-30T05:57:03.657Z,19.15
2019-03-30T05:59:31.830Z,19.25
2019-03-30T06:01:59.985Z,19.10
2019-03-30T06:04:28.269Z,19.57
2019-03-30T06:06:56.333Z,19.42
2019-03-30T06:09:24.443Z,17.92
2019-03-30T06:11:52.438Z,19.30
2019-03-30T06:14:20.494Z,17.95
2019-03-30T06:16:48.508Z,19.25
2019-03-30T06:19:16.506Z,17.55
2019-03-30T06:21:44.627Z,18.25
2019-03-30T06:24:12.648Z,18.57
2019-03-30T06:26:40.713Z,18.25
2019-03-30T06:29:08.791Z,18.45
2019-03-30T06:31:36.831Z,18.65
2019-03-30T06:34:04.880Z,17.75
2019-03-30T06:36:32.984Z,17.62
2019-03-30T06:39:01.032Z,18.15
2019-03-30T06:41:29.074Z,17.50
2019-03-30T06:43:57.130Z,17.77
2019-03-30T06:46:25.203Z,17.52
2019-03-30T06:48:53.358Z,17.82
2019-03-30T06:51:21.518Z,18.30
2019-03-30T06:53:49.652Z,17.95
2019-03-30T06:56:17.701Z,18.45
2019-03-30T06:58:45.819Z,16.77
2019-03-30T07:01:13.895Z,16.62
2019-03-30T07:03:41.916Z,15.25
2019-03-30T07:06:09.981Z,15.85
2019-03-30T07:08:38.298Z,16.45
2019-03-30T07:11:20.223Z,16.07
2019-03-30T07:13:36.599Z,16.87
2019-03-30T07:16:04.596Z,16.60
2019-03-30T07:18:32.673Z,16.27
2019-03-30T07:21:00.686Z,18.00
2019-03-30T07:23:28.706Z,15.55
2019-03-30T07:25:56.759Z,15.10
2019-03-30T07:28:24.790Z,16.30
2019-03-30T07:30:52.813Z,14.90
2019-03-30T07:33:20.945Z,15.43
2019-03-30T07:35:49.050Z,15.75
2019-03-30T07:38:17.062Z,14.65
2019-03-30T07:40:45.123Z,14.83
2019-03-30T07:43:13.209Z,13.85
2019-03-30T07:45:41.244Z,14.85
2019-03-30T07:48:09.298Z,15.23
2019-03-30T07:50:37.325Z,15.13
2019-03-30T07:53:05.332Z,15.18
2019-03-30T07:55:33.516Z,14.70
2019-03-30T07:58:01.696Z,14.68
2019-03-30T08:00:31.083Z,14.68
2019-03-30T08:02:59.235Z,15.60
2019-03-30T08:05:27.280Z,14.40
2019-03-30T08:07:55.305Z,14.58
2019-03-30T08:10:23.359Z,15.20
2019-03-30T08:12:51.370Z,14.63
2019-03-30T08:15:19.494Z,15.60
2019-03-30T08:17:47.667Z,14.70
2019-03-30T08:20:15.775Z,14.28
2019-03-30T08:22:43.806Z,13.62
2019-03-30T08:25:11.838Z,13.90
2019-03-30T08:27:39.867Z,14.55
2019-03-30T08:30:07.970Z,13.72
2019-03-30T08:32:36.023Z,15.55
2019-03-30T08:35:04.081Z,13.40
2019-03-30T08:37:32.118Z,14.23
2019-03-30T08:40:00.424Z,13.70
2019-03-30T08:42:28.608Z,13.78
2019-03-30T08:44:56.678Z,15.23
2019-03-30T08:47:24.722Z,13.60
2019-03-30T08:49:52.728Z,13.32
2019-03-30T08:52:20.792Z,13.80
2019-03-30T08:54:48.890Z,13.90
2019-03-30T08:57:16.958Z,13.40
2019-03-30T08:59:44.985Z,11.78
2019-03-30T09:02:13.031Z,13.10
2019-03-30T09:04:41.089Z,13.58
2019-03-30T09:07:09.115Z,10.58
2019-03-30T09:09:37.160Z,11.68
2019-03-30T09:12:05.290Z,12.88
2019-03-30T09:14:33.496Z,11.78
2019-03-30T09:17:01.617Z,11.35
2019-03-30T09:19:29.665Z,11.65
2019-03-30T09:21:57.694Z,13.78
2019-03-30T09:24:25.722Z,12.07
2019-03-30T09:26:53.785Z,11.63
2019-03-30T09:29:21.940Z,12.07
2019-03-30T09:31:49.977Z,10.88
2019-03-30T09:34:18.115Z,12.07
2019-03-30T09:36:46.154Z,12.23
2019-03-30T09:39:14.254Z,13.60
2019-03-30T09:41:42.303Z,12.45
2019-03-30T09:44:10.311Z,12.75
2019-03-30T09:46:38.336Z,13.50
2019-03-30T09:49:06.417Z,12.13
2019-03-30T09:51:34.461Z,12.82
2019-03-30T09:54:02.535Z,15.03
2019-03-30T09:56:30.605Z,16.17
2019-03-30T09:58:58.671Z,14.38
2019-03-30T10:01:26.831Z,13.65
2019-03-30T10:03:54.859Z,14.68
2019-03-30T10:06:33.801Z,14.75
2019-03-30T10:08:52.759Z,13.90
2019-03-30T10:11:20.822Z,13.62
2019-03-30T10:13:49.014Z,13.45
2019-03-30T10:16:17.073Z,14.20
2019-03-30T10:18:45.112Z,12.98
2019-03-30T10:21:13.157Z,14.00
2019-03-30T10:23:41.244Z,14.18
2019-03-30T10:26:09.310Z,14.15
2019-03-30T10:28:37.360Z,14.10
2019-03-30T10:31:05.465Z,12.90
2019-03-30T10:33:33.540Z,13.43
2019-03-30T10:36:01.589Z,13.25
2019-03-30T10:38:29.815Z,13.22
2019-03-30T10:40:57.943Z,14.73
2019-03-30T10:43:26.043Z,13.78
2019-03-30T10:45:54.087Z,12.78
2019-03-30T10:48:22.124Z,14.28
2019-03-30T10:50:50.189Z,13.80
2019-03-30T10:53:18.264Z,12.75
2019-03-30T10:55:46.629Z,12.88
2019-03-30T10:58:14.664Z,13.85
2019-03-30T11:00:42.746Z,14.63
2019-03-30T11:03:10.818Z,13.68
2019-03-30T11:05:38.879Z,12.10
2019-03-30T11:08:07.009Z,12.15
2019-03-30T11:10:35.056Z,17.00
2019-03-30T11:13:03.356Z,16.32
2019-03-30T11:15:34.143Z,14.63
2019-03-30T11:18:01.163Z,15.15
2019-03-30T11:20:29.265Z,13.32
2019-03-30T11:22:57.365Z,17.25
2019-03-30T11:25:25.432Z,16.62
2019-03-30T11:27:53.745Z,15.93
2019-03-30T11:30:21.806Z,13.28
2019-03-30T11:32:49.975Z,16.48
2019-03-30T11:35:18.000Z,18.12
2019-03-30T11:37:46.041Z,17.87
2019-03-30T11:40:14.575Z,17.12
2019-03-30T11:42:42.675Z,16.05
2019-03-30T11:45:10.735Z,17.57
2019-03-30T11:47:38.853Z,15.60
2019-03-30T11:50:06.947Z,15.80
2019-03-30T11:52:35.036Z,17.20
2019-03-30T11:55:03.095Z,18.45
2019-03-30T11:57:31.151Z,16.77
2019-03-30T11:59:59.264Z,14.30
2019-03-30T12:02:28.459Z,13.18
2019-03-30T12:04:56.616Z,12.68
2019-03-30T12:07:24.999Z,13.08
2019-03-30T12:09:53.083Z,14.00
2019-03-30T12:12:21.143Z,16.17
2019-03-30T12:14:49.165Z,17.50
2019-03-30T12:17:17.204Z,17.30
2019-03-30T12:19:45.246Z,18.15
2019-03-30T12:22:13.271Z,13.88
2019-03-30T12:24:41.320Z,15.20
2019-03-30T12:27:09.366Z,14.90
2019-03-30T12:29:37.387Z,14.47
2019-03-30T12:32:05.474Z,14.98
2019-03-30T12:34:33.532Z,16.20
2019-03-30T12:37:01.600Z,13.90
2019-03-30T12:39:29.695Z,13.72
2019-03-30T12:41:57.765Z,13.72
2019-03-30T12:44:25.947Z,14.33
2019-03-30T12:46:54.024Z,12.90
2019-03-30T12:49:22.058Z,12.90
2019-03-30T12:51:50.098Z,13.53
2019-03-30T12:54:18.159Z,13.25
2019-03-30T12:56:49.317Z,14.35
2019-03-30T12:59:17.326Z,15.05
2019-03-30T13:01:45.397Z,14.87
2019-03-30T13:04:13.491Z,15.13
2019-03-30T13:06:41.533Z,15.75
2019-03-30T13:09:09.568Z,14.03
2019-03-30T13:11:37.617Z,15.83
2019-03-30T13:14:05.638Z,15.05
2019-03-30T13:16:33.728Z,15.95
2019-03-30T13:19:01.789Z,14.53
2019-03-30T13:21:32.355Z,17.07
2019-03-30T13:23:59.574Z,18.62
2019-03-30T13:26:27.627Z,15.98
2019-03-30T13:28:55.633Z,17.35
2019-03-30T13:31:23.657Z,15.58
2019-03-30T13:33:51.730Z,15.68
2019-03-30T13:36:21.798Z,15.98
2019-03-30T13:38:49.834Z,15.60
2019-03-30T13:41:17.873Z,15.88
2019-03-30T13:43:46.009Z,15.80
2019-03-30T13:46:14.040Z,15.78
2019-03-30T13:48:42.095Z,16.42
2019-03-30T13:51:10.122Z,18.20
2019-03-30T13:53:38.154Z,16.73
2019-03-30T13:56:16.606Z,17.37
2019-03-30T13:58:36.682Z,17.75
2019-03-30T14:01:04.899Z,17.57
2019-03-30T14:03:32.952Z,17.52
2019-03-30T14:06:00.985Z,18.00
2019-03-30T14:08:29.017Z,17.90
2019-03-30T14:10:58.061Z,18.65
2019-03-30T14:13:26.092Z,18.23
2019-03-30T14:15:54.200Z,18.48
2019-03-30T14:18:22.518Z,18.42
2019-03-30T14:20:50.588Z,18.73
2019-03-30T14:23:18.913Z,18.30
2019-03-30T14:25:46.978Z,17.98
2019-03-30T14:28:15.427Z,18.32
2019-03-30T14:30:43.712Z,18.77
2019-03-30T14:33:11.807Z,17.98
2019-03-30T14:35:39.826Z,19.07
2019-03-30T14:38:07.887Z,19.10
2019-03-30T14:40:36.164Z,18.10
2019-03-30T14:43:04.210Z,17.00
2019-03-30T14:45:32.236Z,17.07
2019-03-30T14:48:00.355Z,15.53
2019-03-30T14:50:28.398Z,10.82
2019-03-30T14:52:56.452Z,11.22
2019-03-30T14:55:24.524Z,11.70
2019-03-30T14:57:52.590Z,10.40
2019-03-30T15:00:23.763Z,10.55
2019-03-30T15:02:51.985Z,11.05
2019-03-30T15:05:20.153Z,14.47
2019-03-30T15:07:48.281Z,19.45
2019-03-30T15:10:16.357Z,18.48
2019-03-30T15:12:44.440Z,17.45
2019-03-30T15:15:12.434Z,17.98
2019-03-30T15:17:41.293Z,17.85
2019-03-30T15:20:10.390Z,18.57
2019-03-30T15:22:38.594Z,17.45
2019-03-30T15:25:06.634Z,18.87
2019-03-30T15:27:34.675Z,22.22
2019-03-30T15:30:02.706Z,24.00
2019-03-30T15:32:30.769Z,21.52
2019-03-30T15:34:58.808Z,19.15
2019-03-30T15:37:26.933Z,18.17
2019-03-30T15:39:55.025Z,17.62
2019-03-30T15:42:23.056Z,17.17
2019-03-30T15:44:51.138Z,16.97
2019-03-30T15:47:19.169Z,16.57
2019-03-30T15:49:47.192Z,16.55
2019-03-30T15:52:15.304Z,19.55
2019-03-30T15:54:43.439Z,21.20
2019-03-30T15:57:14.279Z,19.10
2019-03-30T15:59:41.374Z,20.32
2019-03-30T16:02:09.486Z,19.95
2019-03-30T16:04:37.526Z,21.90
2019-03-30T16:07:07.039Z,22.80
2019-03-30T16:09:35.243Z,22.00
2019-03-30T16:12:03.291Z,22.50
2019-03-30T16:14:31.355Z,22.70
2019-03-30T16:16:59.519Z,22.27
2019-03-30T16:19:27.565Z,21.70
2019-03-30T16:21:55.624Z,22.30
2019-03-30T16:24:23.658Z,22.65
2019-03-30T16:26:51.692Z,22.98
2019-03-30T16:29:19.788Z,22.40
2019-03-30T16:31:47.827Z,23.02
2019-03-30T16:34:15.909Z,24.07
2019-03-30T16:36:44.208Z,25.65
2019-03-30T16:39:12.309Z,25.48
2019-03-30T16:41:40.442Z,25.32
2019-03-30T16:44:08.493Z,25.17
2019-03-30T16:46:36.564Z,25.02
2019-03-30T16:49:04.678Z,25.80
2019-03-30T16:51:32.759Z,25.17
2019-03-30T16:54:00.826Z,25.62
2019-03-30T16:56:28.884Z,24.30
2019-03-30T16:58:57.065Z,24.18
2019-03-30T17:01:25.172Z,23.70
2019-03-30T17:03:53.320Z,22.70
2019-03-30T17:06:21.593Z,22.87
2019-03-30T17:08:49.743Z,22.25
2019-03-30T17:11:18.243Z,22.13
2019-03-30T17:13:46.274Z,20.97
2019-03-30T17:16:14.361Z,20.65
2019-03-30T17:18:42.391Z,22.30
2019-03-30T17:21:10.678Z,20.80
2019-03-30T17:23:38.991Z,22.22
2019-03-30T17:26:07.056Z,19.55
2019-03-30T17:28:35.072Z,21.07
2019-03-30T17:31:03.178Z,19.75
2019-03-30T17:33:31.254Z,19.40
2019-03-30T17:35:59.392Z,18.37
2019-03-30T17:38:27.435Z,17.57
2019-03-30T17:40:55.457Z,18.20
2019-03-30T17:43:23.753Z,17.75
2019-03-30T17:45:51.838Z,18.67
2019-03-30T17:48:19.869Z,18.57
2019-03-30T17:50:47.934Z,17.50
2019-03-30T17:53:15.990Z,17.67
2019-03-30T17:55:44.066Z,19.42
2019-03-30T17:58:13.551Z,21.25
2019-03-30T18:00:42.052Z,22.10
2019-03-30T18:03:10.090Z,21.48
2019-03-30T18:05:38.116Z,23.30
2019-03-30T18:08:06.187Z,22.55
2019-03-30T18:10:34.279Z,23.25
2019-03-30T18:13:02.323Z,23.45
2019-03-30T18:15:30.375Z,22.10
2019-03-30T18:17:58.406Z,22.90
2019-03-30T18:20:26.911Z,23.80
2019-03-30T18:22:55.054Z,21.23
2019-03-30T18:25:23.102Z,20.82
2019-03-30T18:27:51.121Z,20.20
2019-03-30T18:30:19.163Z,19.50
2019-03-30T18:32:47.189Z,19.67
2019-03-30T18:35:15.290Z,20.72
2019-03-30T18:37:43.345Z,22.22
2019-03-30T18:40:11.387Z,25.12
2019-03-30T18:42:39.418Z,25.65
2019-03-30T18:45:07.480Z,26.82
2019-03-30T18:47:35.537Z,28.35
2019-03-30T18:50:03.566Z,28.75
2019-03-30T18:52:31.641Z,29.57
2019-03-30T18:54:59.857Z,30.08
2019-03-30T18:57:27.898Z,30.50
2019-03-30T18:59:55.948Z,30.10
2019-03-30T19:02:24.145Z,31.75
2019-03-30T19:04:52.189Z,31.62
2019-03-30T19:07:20.295Z,32.17
2019-03-30T19:09:48.331Z,29.42
2019-03-30T19:12:16.345Z,28.67
2019-03-30T19:14:44.619Z,28.27
2019-03-30T19:17:12.699Z,27.73
2019-03-30T19:19:40.719Z,26.07
2019-03-30T19:22:08.842Z,25.30
2019-03-30T19:24:36.864Z,24.37
2019-03-30T19:27:04.898Z,24.87
2019-03-30T19:29:32.932Z,22.42
2019-03-30T19:32:00.950Z,21.80
2019-03-30T19:34:29.073Z,21.77
2019-03-30T19:36:57.120Z,21.23
2019-03-30T19:39:25.167Z,21.20
2019-03-30T19:41:53.289Z,20.82
2019-03-30T19:44:21.424Z,19.82
2019-03-30T19:46:49.828Z,18.77
2019-03-30T19:49:17.909Z,20.55
2019-03-30T19:51:45.999Z,21.52
2019-03-30T19:54:14.052Z,20.60
2019-03-30T19:56:42.126Z,21.00
2019-03-30T19:59:11.397Z,19.75
2019-03-30T20:01:39.600Z,18.87
2019-03-30T20:04:08.044Z,20.23
2019-03-30T20:06:36.106Z,20.23
2019-03-30T20:09:05.838Z,20.40
2019-03-30T20:11:34.223Z,18.67
2019-03-30T20:14:02.511Z,18.32
2019-03-30T20:16:30.606Z,19.12
2019-03-30T20:19:11.392Z,18.87
2019-03-30T20:21:28.469Z,19.42
2019-03-30T20:23:56.522Z,19.55
2019-03-30T20:26:24.544Z,19.17
2019-03-30T20:28:52.615Z,20.80
2019-03-30T20:31:20.658Z,21.25
2019-03-30T20:33:48.701Z,20.50
2019-03-30T20:36:16.718Z,20.02
2019-03-30T20:38:44.808Z,21.50
2019-03-30T20:41:12.942Z,21.17
2019-03-30T20:43:41.019Z,20.75
2019-03-30T20:46:09.226Z,20.77
2019-03-30T20:48:37.327Z,22.00
2019-03-30T20:51:05.419Z,22.13
2019-03-30T20:53:33.549Z,20.43
2019-03-30T20:56:01.991Z,21.68
2019-03-30T20:58:30.047Z,19.52
2019-03-30T21:00:58.097Z,22.10
2019-03-30T21:03:26.240Z,20.00
2019-03-30T21:05:54.306Z,21.10
2019-03-30T21:08:22.536Z,20.08
2019-03-30T21:10:50.706Z,20.70
2019-03-30T21:13:19.064Z,21.00
2019-03-30T21:15:47.175Z,21.07
2019-03-30T21:18:15.236Z,20.30
2019-03-30T21:20:43.345Z,20.20
2019-03-30T21:23:11.415Z,21.33
2019-03-30T21:25:39.489Z,21.00
2019-03-30T21:28:07.516Z,21.82
2019-03-30T21:30:35.555Z,21.33
2019-03-30T21:33:03.583Z,21.90
2019-03-30T21:35:31.630Z,21.62
2019-03-30T21:37:59.716Z,21.87
2019-03-30T21:40:27.741Z,21.35
2019-03-30T21:42:55.772Z,20.82
2019-03-30T21:45:23.885Z,22.58
2019-03-30T21:47:51.905Z,22.05
2019-03-30T21:50:19.972Z,22.07
2019-03-30T21:52:48.140Z,22.90
2019-03-30T21:55:16.159Z,21.68
2019-03-30T21:57:44.267Z,22.35
2019-03-30T22:00:12.340Z,22.87
2019-03-30T22:02:40.344Z,21.35
2019-03-30T22:05:08.417Z,22.22
2019-03-30T22:07:36.456Z,22.15
2019-03-30T22:10:04.777Z,21.68
2019-03-30T22:12:32.889Z,23.35
2019-03-30T22:15:00.947Z,21.93
2019-03-30T22:17:29.034Z,23.18
2019-03-30T22:19:57.056Z,23.27
2019-03-30T22:22:25.126Z,23.22
2019-03-30T22:24:53.164Z,22.13
2019-03-30T22:27:21.178Z,22.80
2019-03-30T22:29:49.262Z,22.13
2019-03-30T22:32:17.280Z,21.85
2019-03-30T22:34:45.426Z,20.75
2019-03-30T22:37:13.468Z,21.62
2019-03-30T22:39:41.524Z,21.00
2019-03-30T22:42:09.548Z,19.73
2019-03-30T22:44:37.686Z,19.25
2019-03-30T22:47:05.712Z,20.00
2019-03-30T22:49:34.074Z,20.23
2019-03-30T22:52:02.235Z,21.55
2019-03-30T22:54:30.294Z,21.50
2019-03-30T22:56:58.355Z,20.68
2019-03-30T22:59:26.438Z,22.25
2019-03-30T23:01:54.527Z,21.25
2019-03-30T23:04:22.661Z,22.95
2019-03-30T23:06:50.719Z,23.27
2019-03-30T23:09:18.755Z,24.95
2019-03-30T23:11:46.835Z,24.43
2019-03-30T23:14:14.907Z,23.00
2019-03-30T23:16:42.941Z,25.50
2019-03-30T23:19:10.962Z,24.60
2019-03-30T23:21:39.034Z,26.95
2019-03-30T23:24:07.461Z,27.17
2019-03-30T23:26:35.836Z,24.80
2019-03-30T23:29:03.886Z,26.93
2019-03-30T23:31:31.922Z,21.80
2019-03-30T23:34:00.055Z,20.40
2019-03-30T23:36:28.110Z,23.77
2019-03-30T23:38:56.158Z,25.97
2019-03-30T23:41:24.185Z,27.37
2019-03-30T23:43:52.212Z,29.57
2019-03-30T23:46:20.732Z,29.77
2019-03-30T23:48:48.762Z,29.98
2019-03-30T23:51:16.832Z,31.95
2019-03-30T23:53:44.976Z,31.97
2019-03-30T23:56:13.320Z,33.23
2019-03-30T23:58:41.428Z,32.67
